LONG BEACH CHANNEL, CA - 215

GPS Positions

GPS Time
Latitude
Degrees
Longitude
Degrees
Gap
 
Distance
NM
Speed
Knots
Direction
Degrees
2020 Feb 04, 08:51 33.70031° -118.20100° 30 min 0.02 0.00
2020 Feb 04, 08:21 33.70030° -118.20100° 1 h 0.02 0.00
292°
2020 Feb 04, 07:21 33.70029° -118.20098° 30 min 0.02 0.00
2020 Feb 04, 06:51 33.70027° -118.20098° 30 min 0.02 0.00
287°
2020 Feb 04, 06:21 33.70026° -118.20094° 30 min 0.01 0.01
285°
2020 Feb 04, 05:51 33.70024° -118.20085° 30 min 0.01 0.00
331°
2020 Feb 04, 05:21 33.70021° -118.20083° 30 min 0.01 0.00
180°
2020 Feb 04, 04:51 33.70022° -118.20083° 30 min 0.01 0.00
2020 Feb 04, 04:21 33.70021° -118.20083° 30 min 0.01 0.02
301°
2020 Feb 04, 03:51 33.70013° -118.20068° 30 min 0.01 0.01
282°
2020 Feb 04, 03:21 33.70011° -118.20055° 30 min 0.01 0.01
24°
2020 Feb 04, 02:51 33.70007° -118.20058° 30 min 0.02 0.01
245°
2020 Feb 04, 02:21 33.70011° -118.20047° 30 min 0.02 0.00
2020 Feb 04, 01:51 33.70011° -118.20047° 30 min 0.02 0.01
2020 Feb 04, 01:21 33.70006° -118.20047° 30 min 0.02 0.01
90°
2020 Feb 04, 00:51 33.70006° -118.20053° 30 min 0.02 0.00
270°
2020 Feb 04, 00:21 33.70006° -118.20051° 30 min 0.02 0.00
239°
2020 Feb 03, 23:51 33.70008° -118.20047° 30 min 0.02 0.00
180°
2020 Feb 03, 23:21 33.70010° -118.20047° 30 min 0.02 0.00
2020 Feb 03, 22:51 33.70009° -118.20047° 30 min 0.02 0.00
2020 Feb 03, 22:21 33.70009° -118.20047° 30 min 0.02 0.00
315°
2020 Feb 03, 21:51 33.70007° -118.20045° 30 min 0.02 0.00
40°
2020 Feb 03, 21:21 33.70005° -118.20047° 30 min 0.02 0.01
231°
2020 Feb 03, 20:51 33.70008° -118.20042° 30 min 0.02 0.01
220°
2020 Feb 03, 20:21 33.70012° -118.20038° 30 min 0.02 0.00
2020 Feb 03, 19:51 33.70012° -118.20038° 30 min 0.02 0.00
312°
2020 Feb 03, 19:21 33.70011° -118.20036° 30 min 0.02 0.00
180°
2020 Feb 03, 18:51 33.70013° -118.20036° 30 min 0.02 0.00
248°
2020 Feb 03, 18:21 33.70014° -118.20034° 30 min 0.02 0.00
45°
2020 Feb 03, 17:51 33.70012° -118.20036° 30 min 0.02 0.00
2020 Feb 03, 17:21 33.70011° -118.20036° 30 min 0.02 0.01
17°
2020 Feb 03, 16:51 33.70007° -118.20038° 30 min 0.02 0.00
90°
2020 Feb 03, 16:21 33.70007° -118.20042° 30 min 0.02 0.00
270°
2020 Feb 03, 15:51 33.70007° -118.20038° 30 min 0.02 0.00
180°
2020 Feb 03, 15:21 33.70010° -118.20038° 30 min 0.02 0.00
2020 Feb 03, 14:51 33.70010° -118.20038° 30 min 0.02 0.00
2020 Feb 03, 14:21 33.70010° -118.20038° 30 min 0.02 0.00
2020 Feb 03, 13:51 33.70010° -118.20038° 30 min 0.02 0.00
180°
2020 Feb 03, 13:21 33.70013° -118.20038° 30 min 0.02 0.00
180°
2020 Feb 03, 12:51 33.70014° -118.20038° 30 min 0.02 0.00
32°
2020 Feb 03, 12:21 33.70011° -118.20040° 30 min 0.02 0.00
180°
2020 Feb 03, 11:51 33.70012° -118.20040° 30 min 0.02 0.01
51°
2020 Feb 03, 11:21 33.70008° -118.20047° 30 min 0.02 0.00
59°
2020 Feb 03, 10:51 33.70007° -118.20049° 30 min 0.02 0.00
90°
2020 Feb 03, 10:21 33.70007° -118.20053° 30 min 0.02 0.01
90°
2020 Feb 03, 09:51 33.70007° -118.20066° 30 min 0.02 0.02
147°
2020 Feb 03, 09:21 33.70021° -118.20077° 30 min 0.01 0.01
44°
2020 Feb 03, 08:51 33.70015° -118.20083° 30 min 0.01 0.01
150°
2020 Feb 03, 08:21 33.70022° -118.20087° 30 min 0.01 0.00
90°
2020 Feb 03, 07:51 33.70022° -118.20092° 30 min 0.01 0.02
180°
2020 Feb 03, 07:21 33.70037° -118.20092° 30 min 0.01 0.01
261°
2020 Feb 03, 06:51 33.70038° -118.20083° 30 min 0.01 0.00
45°
2020 Feb 03, 06:21 33.70036° -118.20085° 30 min 0.01 0.00
320°
2020 Feb 03, 05:51 33.70034° -118.20083° 30 min 0.01 0.00
121°
2020 Feb 03, 05:21 33.70035° -118.20085° 30 min 0.01 0.00
270°
2020 Feb 03, 04:51 33.70035° -118.20083° 30 min 0.01 0.00
2020 Feb 03, 04:21 33.70035° -118.20083° 30 min 0.01 0.00
290°
2020 Feb 03, 03:51 33.70034° -118.20079° 30 min 0.01 0.01
222°
2020 Feb 03, 03:21 33.70038° -118.20074° 30 min 0.00 0.01
244°
2020 Feb 03, 02:51 33.70041° -118.20066° 30 min 0.00 0.00
259°
2020 Feb 03, 02:21 33.70042° -118.20061° 30 min 0.01 0.00
2020 Feb 03, 01:51 33.70042° -118.20061° 30 min 0.01 0.00
180°
2020 Feb 03, 01:21 33.70043° -118.20061° 30 min 0.01 0.00
59°
2020 Feb 03, 00:51 33.70042° -118.20064° 30 min 0.01 0.00
180°
2020 Feb 03, 00:21 33.70044° -118.20064° 30 min 0.01 0.00
220°
2020 Feb 02, 23:51 33.70047° -118.20061° 30 min 0.01 0.01
246°
2020 Feb 02, 23:21 33.70050° -118.20053° 30 min 0.01 0.01
63°
2020 Feb 02, 22:51 33.70048° -118.20058° 30 min 0.01 0.00
259°
2020 Feb 02, 22:21 33.70049° -118.20053° 30 min 0.01 0.01
301°
2020 Feb 02, 21:51 33.70045° -118.20047° 30 min 0.01 0.00
287°
2020 Feb 02, 21:21 33.70044° -118.20042° 30 min 0.01 0.00
2020 Feb 02, 20:51 33.70044° -118.20042° 30 min 0.01 0.00
90°
2020 Feb 02, 20:21 33.70044° -118.20047° 30 min 0.01 0.00
90°
2020 Feb 02, 19:51 33.70044° -118.20049° 30 min 0.01 0.00
337°
2020 Feb 02, 19:21 33.70041° -118.20047° 30 min 0.01 0.01
287°
2020 Feb 02, 18:51 33.70039° -118.20038° 30 min 0.01 0.01
343°
2020 Feb 02, 18:21 33.70035° -118.20036° 30 min 0.02 0.00
180°
2020 Feb 02, 17:51 33.70036° -118.20036° 30 min 0.02 0.01
29°
2020 Feb 02, 17:21 33.70030° -118.20040° 30 min 0.01 0.00
2020 Feb 02, 16:51 33.70029° -118.20040° 30 min 0.01 0.00
135°
2020 Feb 02, 16:21 33.70031° -118.20042° 30 min 0.01 0.00
45°
2020 Feb 02, 15:51 33.70029° -118.20045° 30 min 0.01 0.00
270°
2020 Feb 02, 15:21 33.70029° -118.20042° 30 min 0.01 0.00
2020 Feb 02, 14:51 33.70029° -118.20042° 30 min 0.01 0.00
180°
2020 Feb 02, 14:21 33.70031° -118.20042° 30 min 0.01 0.01
160°
2020 Feb 02, 13:51 33.70037° -118.20045° 30 min 0.01 0.00
151°
2020 Feb 02, 13:21 33.70040° -118.20047° 30 min 0.01 0.01
149°
2020 Feb 02, 12:51 33.70045° -118.20051° 30 min 0.01 0.01
68°
2020 Feb 02, 12:21 33.70043° -118.20058° 30 min 0.01 0.01
137°
2020 Feb 02, 11:51 33.70047° -118.20061° 30 min 0.01 0.02
75°
2020 Feb 02, 11:21 33.70043° -118.20077° 30 min 0.01 0.00
239°
2020 Feb 02, 10:51 33.70044° -118.20074° 30 min 0.01 0.00
180°
2020 Feb 02, 10:21 33.70045° -118.20074° 30 min 0.01 0.00
40°
2020 Feb 02, 09:51 33.70043° -118.20077° 30 min 0.01 0.00
2020 Feb 02, 09:21 33.70042° -118.20077° 30 min 0.01 0.00
68°
2020 Feb 02, 08:51 33.70041° -118.20079° 30 min 0.01 0.01
262°
2020 Feb 02, 08:21 33.70042° -118.20072° 30 min 0.01 0.00
2020 Feb 02, 07:51 33.70040° -118.20072° 30 min 0.00 0.01
258°
2020 Feb 02, 07:21 33.70042° -118.20061° 30 min 0.01 0.01
316°
2020 Feb 02, 06:51 33.70037° -118.20055° 30 min 0.01 0.00
239°
2020 Feb 02, 06:21 33.70038° -118.20053° 30 min 0.01 0.01
325°
2020 Feb 02, 05:51 33.70033° -118.20049° 30 min 0.01 0.00
180°
2020 Feb 02, 05:21 33.70036° -118.20049° 30 min 0.01 0.00
2020 Feb 02, 04:51 33.70034° -118.20049° 30 min 0.01 0.00
203°
2020 Feb 02, 04:21 33.70037° -118.20047° 30 min 0.01 0.01
297°
2020 Feb 02, 03:51 33.70035° -118.20042° 30 min 0.01 0.00
301°
2020 Feb 02, 03:21 33.70034° -118.20040° 30 min 0.01 0.00
180°
2020 Feb 02, 02:51 33.70035° -118.20040° 30 min 0.01 0.00
331°
2020 Feb 02, 02:21 33.70031° -118.20038° 30 min 0.01 0.00
234°
2020 Feb 02, 01:51 33.70034° -118.20034° 30 min 0.02 0.00
2020 Feb 02, 01:21 33.70031° -118.20034° 30 min 0.02 0.00
2020 Feb 02, 00:51 33.70031° -118.20034° 30 min 0.02 0.00
180°
2020 Feb 02, 00:21 33.70035° -118.20034° 30 min 0.02 0.00
301°
2020 Feb 01, 23:51 33.70034° -118.20032° 30 min 0.02 0.00
180°
2020 Feb 01, 23:21 33.70036° -118.20032° 30 min 0.02 0.00
2020 Feb 01, 22:51 33.70034° -118.20032° 30 min 0.02 0.00
107°
2020 Feb 01, 22:21 33.70035° -118.20036° 30 min 0.02 0.00
48°
2020 Feb 01, 21:51 33.70034° -118.20038° 30 min 0.01 0.00
140°
2020 Feb 01, 21:21 33.70036° -118.20040° 30 min 0.01 0.01
51°
2020 Feb 01, 20:51 33.70031° -118.20047° 30 min 0.01 0.00
287°
2020 Feb 01, 20:21 33.70030° -118.20042° 30 min 0.01 0.00
68°
2020 Feb 01, 19:51 33.70029° -118.20045° 30 min 0.01 0.00
270°
2020 Feb 01, 19:21 33.70029° -118.20042° 30 min 0.01 0.00
2020 Feb 01, 18:51 33.70027° -118.20042° 30 min 0.01 0.00
180°
2020 Feb 01, 18:21 33.70029° -118.20042° 30 min 0.01 0.00
270°
2020 Feb 01, 17:51 33.70029° -118.20040° 30 min 0.01 0.00
331°
2020 Feb 01, 17:21 33.70026° -118.20038° 30 min 0.02 0.00
270°
2020 Feb 01, 16:51 33.70026° -118.20036° 30 min 0.02 0.00
270°
2020 Feb 01, 16:21 33.70026° -118.20034° 30 min 0.02 0.00
180°
2020 Feb 01, 15:51 33.70029° -118.20034° 30 min 0.02 0.00
320°
2020 Feb 01, 15:21 33.70027° -118.20032° 30 min 0.02 0.00
2020 Feb 01, 14:51 33.70024° -118.20032° 30 min 0.02 0.00
180°
2020 Feb 01, 14:21 33.70025° -118.20032° 30 min 0.02 0.00
2020 Feb 01, 13:51 33.70025° -118.20032° 30 min 0.02 0.00
68°
2020 Feb 01, 13:21 33.70024° -118.20034° 30 min 0.02 0.00
180°
2020 Feb 01, 12:51 33.70025° -118.20034° 30 min 0.02 0.00
76°
2020 Feb 01, 12:21 33.70024° -118.20038° 30 min 0.02 0.01
180°
2020 Feb 01, 11:51 33.70028° -118.20038° 30 min 0.01 0.00
90°
2020 Feb 01, 11:21 33.70028° -118.20042° 30 min 0.01 0.00
2020 Feb 01, 10:51 33.70027° -118.20042° 30 min 0.01 0.00
2020 Feb 01, 10:21 33.70025° -118.20042° 30 min 0.01 0.00
107°
2020 Feb 01, 09:51 33.70026° -118.20047° 30 min 0.01 0.00
220°
2020 Feb 01, 09:21 33.70028° -118.20045° 30 min 0.01 0.00
40°
2020 Feb 01, 08:51 33.70026° -118.20047° 30 min 0.01 0.00
110°
2020 Feb 01, 08:21 33.70027° -118.20051° 30 min 0.01 0.00
328°
2020 Feb 01, 07:51 33.70024° -118.20049° 30 min 0.01 0.00
148°
2020 Feb 01, 07:21 33.70027° -118.20051° 30 min 0.01 0.00
301°
2020 Feb 01, 06:51 33.70026° -118.20049° 30 min 0.01 0.01
191°
2020 Feb 01, 06:21 33.70033° -118.20047° 30 min 0.01 0.01
349°
2020 Feb 01, 05:51 33.70023° -118.20045° 30 min 0.01 0.01
196°
2020 Feb 01, 05:21 33.70029° -118.20042° 30 min 0.01 0.01
320°
2020 Feb 01, 04:51 33.70025° -118.20038° 30 min 0.02 0.00
228°
2020 Feb 01, 04:21 33.70026° -118.20036° 30 min 0.02 0.00
239°
2020 Feb 01, 03:51 33.70027° -118.20034° 30 min 0.02 0.00
180°
2020 Feb 01, 03:21 33.70030° -118.20034° 30 min 0.02 0.00
45°
2020 Feb 01, 02:51 33.70028° -118.20036° 30 min 0.02 0.00
239°
2020 Feb 01, 02:21 33.70029° -118.20034° 30 min 0.02 0.00
180°
2020 Feb 01, 01:51 33.70030° -118.20034° 30 min 0.02 0.00
270°
2020 Feb 01, 01:21 33.70030° -118.20032° 30 min 0.02 0.00
2020 Feb 01, 00:51 33.70030° -118.20032° 30 min 0.02 0.00
2020 Feb 01, 00:21 33.70030° -118.20032° 30 min 0.02 0.00
180°
2020 Jan 31, 23:51 33.70033° -118.20032° 30 min 0.02 0.00
180°
2020 Jan 31, 23:21 33.70036° -118.20032° 30 min 0.02 0.00
90°
2020 Jan 31, 22:51 33.70036° -118.20036° 30 min 0.02 0.00
121°
2020 Jan 31, 22:21 33.70037° -118.20038° 30 min 0.01 0.00
79°
2020 Jan 31, 21:51 33.70036° -118.20042° 30 min 0.01 0.00
29°
2020 Jan 31, 21:21 33.70033° -118.20045° 30 min 0.01 0.01
143°
2020 Jan 31, 20:51 33.70037° -118.20049° 30 min 0.01 0.02
80°
2020 Jan 31, 20:21 33.70034° -118.20068° 30 min 0.00 0.01
2020 Jan 31, 19:51 33.70027° -118.20068° 30 min 0.00 0.00
110°
2020 Jan 31, 19:21 33.70028° -118.20072° 30 min 0.00 0.00
2020 Jan 31, 18:51 33.70027° -118.20072° 30 min 0.00 0.01
180°
2020 Jan 31, 18:21 33.70033° -118.20072° 30 min 0.00 0.01
24°
2020 Jan 31, 17:51 33.70028° -118.20074° 30 min 0.00 0.01
14°
2020 Jan 31, 17:21 33.70021° -118.20077° 30 min 0.01 0.01
295°
2020 Jan 31, 16:51 33.70016° -118.20066° 30 min 0.01 0.01
288°
2020 Jan 31, 16:21 33.70014° -118.20058° 30 min 0.01 0.01
231°
2020 Jan 31, 15:51 33.70019° -118.20051° 30 min 0.01 0.00
2020 Jan 31, 15:21 33.70015° -118.20051° 30 min 0.01 0.01
195°
2020 Jan 31, 14:51 33.70027° -118.20047° 30 min 0.01 0.01
340°
2020 Jan 31, 14:21 33.70022° -118.20045° 30 min 0.01 0.00
180°
2020 Jan 31, 13:51 33.70024° -118.20045° 30 min 0.01 0.00
2020 Jan 31, 13:21 33.70022° -118.20045° 30 min 0.01 0.00
90°
2020 Jan 31, 12:51 33.70022° -118.20049° 30 min 0.01 0.01
191°
2020 Jan 31, 12:21 33.70028° -118.20047° 30 min 0.01 0.01
231°
2020 Jan 31, 11:51 33.70031° -118.20042° 30 min 0.01 0.00
73°
2020 Jan 31, 11:21 33.70030° -118.20047° 30 min 0.01 0.00
180°
2020 Jan 31, 10:51 33.70033° -118.20047° 30 min 0.01 0.01
135°
2020 Jan 31, 10:21 33.70041° -118.20058° 30 min 0.01 0.01
99°
2020 Jan 31, 09:51 33.70043° -118.20072° 30 min 0.01 0.00
121°
2020 Jan 31, 09:21 33.70044° -118.20074° 30 min 0.01 0.01
51°
2020 Jan 31, 08:51 33.70041° -118.20079° 30 min 0.01 0.00
180°
2020 Jan 31, 08:21 33.70043° -118.20079° 30 min 0.01 0.00
2020 Jan 31, 07:51 33.70042° -118.20079° 30 min 0.01 0.00
32°
2020 Jan 31, 07:21 33.70039° -118.20081° 30 min 0.01 0.00
132°
2020 Jan 31, 06:51 33.70040° -118.20083° 30 min 0.01 0.00
59°
2020 Jan 31, 06:21 33.70039° -118.20085° 30 min 0.01 0.00
32°
2020 Jan 31, 05:51 33.70036° -118.20087° 30 min 0.01 0.01
243°
2020 Jan 31, 05:21 33.70038° -118.20083° 30 min 0.01 0.00
73°
2020 Jan 31, 04:51 33.70037° -118.20087° 30 min 0.01 0.00
328°
2020 Jan 31, 04:21 33.70034° -118.20085° 30 min 0.01 0.01
218°
2020 Jan 31, 03:51 33.70040° -118.20079° 30 min 0.01 0.01
12°
2020 Jan 31, 03:21 33.70031° -118.20081° 30 min 0.01 0.01
230°
2020 Jan 31, 02:51 33.70038° -118.20072° 30 min 0.00 0.02
270°
2020 Jan 31, 02:21 33.70038° -118.20055° 30 min 0.01 0.01
270°
2020 Jan 31, 01:51 33.70038° -118.20049° 30 min 0.01 0.00
337°
2020 Jan 31, 01:21 33.70035° -118.20047° 30 min 0.01 0.01
312°
2020 Jan 31, 00:51 33.70031° -118.20042° 30 min 0.01 0.01
215°
2020 Jan 31, 00:21 33.70037° -118.20038° 30 min 0.01 0.00
90°
2020 Jan 30, 23:51 33.70037° -118.20040° 30 min 0.01 0.01
145°
2020 Jan 30, 23:21 33.70042° -118.20045° 30 min 0.01 0.01
108°
2020 Jan 30, 22:51 33.70044° -118.20053° 30 min 0.01 0.01
90°
2020 Jan 30, 22:21 33.70044° -118.20061° 30 min 0.01 0.02
59°
2020 Jan 30, 21:51 33.70038° -118.20074° 30 min 0.00 0.01
112°
2020 Jan 30, 21:21 33.70040° -118.20081° 30 min 0.01 0.00
29°
2020 Jan 30, 20:51 33.70038° -118.20083° 30 min 0.01 0.01
180°
2020 Jan 30, 20:21 33.70042° -118.20083° 30 min 0.01 0.01
2020 Jan 30, 19:51 33.70037° -118.20083° 30 min 0.01 0.00
90°
2020 Jan 30, 19:21 33.70037° -118.20085° 30 min 0.01 0.01
223°
2020 Jan 30, 18:51 33.70040° -118.20081° 30 min 0.01 0.01
204°
2020 Jan 30, 18:21 33.70044° -118.20079° 30 min 0.01 0.01
2020 Jan 30, 17:51 33.70040° -118.20079° 30 min 0.01 0.01
346°
2020 Jan 30, 17:21 33.70033° -118.20077° 30 min 0.00 0.00
2020 Jan 30, 16:51 33.70031° -118.20077° 30 min 0.01 0.01
336°
2020 Jan 30, 16:21 33.70023° -118.20072° 30 min 0.01 0.01
249°
2020 Jan 30, 15:51 33.70027° -118.20059° 30 min 0.01 0.01
257°
2020 Jan 30, 15:21 33.70028° -118.20053° 30 min 0.01 0.00
2020 Jan 30, 14:51 33.70028° -118.20053° 30 min 0.01 0.00
2020 Jan 30, 14:21 33.70026° -118.20053° 30 min 0.01 0.01
2020 Jan 30, 13:51 33.70021° -118.20053° 30 min 0.01 0.00
180°
2020 Jan 30, 13:21 33.70022° -118.20053° 30 min 0.01 0.01
215°
2020 Jan 30, 12:51 33.70027° -118.20049° 30 min 0.01 0.01
180°
2020 Jan 30, 12:21 33.70031° -118.20049° 30 min 0.01 0.01
81°
2020 Jan 30, 11:51 33.70030° -118.20058° 30 min 0.00 0.02
90°
2020 Jan 30, 11:21 33.70030° -118.20077° 30 min 0.01 0.00
151°
2020 Jan 30, 10:51 33.70034° -118.20079° 30 min 0.01 0.00
59°
2020 Jan 30, 10:21 33.70033° -118.20081° 30 min 0.01 0.01
37°
2020 Jan 30, 09:51 33.70028° -118.20085° 30 min 0.01 0.00
148°
2020 Jan 30, 09:21 33.70031° -118.20087° 30 min 0.01 0.00
2020 Jan 30, 08:51 33.70029° -118.20087° 30 min 0.01 0.00
180°
2020 Jan 30, 08:21 33.70030° -118.20087° 30 min 0.01 0.00
2020 Jan 30, 07:51 33.70029° -118.20087° 30 min 0.01 0.01
222°
2020 Jan 30, 07:21 33.70034° -118.20083° 30 min 0.01 0.00
209°
2020 Jan 30, 06:51 33.70036° -118.20081° 30 min 0.01 0.00
320°
2020 Jan 30, 06:21 33.70034° -118.20079° 30 min 0.01 0.00
301°
2020 Jan 30, 05:51 33.70033° -118.20077° 30 min 0.00 0.02
246°
2020 Jan 30, 05:21 33.70039° -118.20059° 30 min 0.01 0.01
246°
2020 Jan 30, 04:51 33.70041° -118.20053° 30 min 0.01 0.01
312°
2020 Jan 30, 04:21 33.70037° -118.20047° 30 min 0.01 0.01
165°
2020 Jan 30, 03:51 33.70041° -118.20049° 30 min 0.01 0.01
322°
2020 Jan 30, 03:21 33.70035° -118.20042° 30 min 0.01 0.01
230°
2020 Jan 30, 02:51 33.70039° -118.20036° 30 min 0.02 0.00
328°
2020 Jan 30, 02:21 33.70036° -118.20034° 30 min 0.02 0.00
301°
2020 Jan 30, 01:51 33.70035° -118.20032° 30 min 0.02 0.00
301°
2020 Jan 30, 01:21 33.70034° -118.20029° 30 min 0.02 0.00
148°
2020 Jan 30, 00:51 33.70037° -118.20032° 30 min 0.02 0.01
145°
2020 Jan 30, 00:21 33.70042° -118.20036° 30 min 0.02 0.00
2020 Jan 29, 23:51 33.70041° -118.20036° 30 min 0.02 0.00
270°
2020 Jan 29, 23:21 33.70041° -118.20034° 30 min 0.02 0.00
59°
2020 Jan 29, 22:51 33.70040° -118.20036° 30 min 0.02 0.00
270°
2020 Jan 29, 22:21 33.70040° -118.20034° 30 min 0.02 0.00
180°
2020 Jan 29, 21:51 33.70042° -118.20034° 30 min 0.02 0.01
81°
2020 Jan 29, 21:21 33.70041° -118.20040° 30 min 0.01 0.01
108°
2020 Jan 29, 20:51 33.70043° -118.20047° 30 min 0.01 0.02
111°
2020 Jan 29, 20:21 33.70048° -118.20061° 30 min 0.01 0.01
79°
2020 Jan 29, 19:51 33.70047° -118.20068° 30 min 0.01 0.01
279°
2020 Jan 29, 19:21 33.70045° -118.20059° 30 min 0.01 0.01
2020 Jan 29, 18:51 33.70039° -118.20059° 30 min 0.01 0.01
224°
2020 Jan 29, 18:21 33.70044° -118.20053° 30 min 0.01 0.01
309°
2020 Jan 29, 17:51 33.70041° -118.20049° 30 min 0.01 0.00
256°
2020 Jan 29, 17:21 33.70042° -118.20045° 30 min 0.01 0.01
336°
2020 Jan 29, 16:51 33.70038° -118.20042° 30 min 0.01 0.01
336°
2020 Jan 29, 16:21 33.70034° -118.20040° 30 min 0.01 0.00
320°
2020 Jan 29, 15:51 33.70031° -118.20038° 30 min 0.01 0.00
270°
2020 Jan 29, 15:21 33.70031° -118.20036° 30 min 0.02 0.01
309°
2020 Jan 29, 14:51 33.70028° -118.20032° 30 min 0.02 0.00
2020 Jan 29, 14:21 33.70027° -118.20032° 30 min 0.02 0.00
90°
2020 Jan 29, 13:51 33.70027° -118.20034° 30 min 0.02 0.00
270°
2020 Jan 29, 13:21 33.70027° -118.20032° 30 min 0.02 0.00
2020 Jan 29, 12:51 33.70026° -118.20032° 30 min 0.02 0.00
45°
2020 Jan 29, 12:21 33.70024° -118.20034° 30 min 0.02 0.00
248°
2020 Jan 29, 11:51 33.70025° -118.20032° 30 min 0.02 0.00
180°
2020 Jan 29, 11:21 33.70027° -118.20032° 30 min 0.02 0.01
14°
2020 Jan 29, 10:51 33.70020° -118.20034° 30 min 0.02 0.00
2020 Jan 29, 10:21 33.70019° -118.20034° 30 min 0.02 0.01
35°
2020 Jan 29, 09:51 33.70014° -118.20038° 30 min 0.02 0.00
180°
2020 Jan 29, 09:21 33.70016° -118.20038° 30 min 0.02 0.00
59°
2020 Jan 29, 08:51 33.70015° -118.20040° 30 min 0.02 0.00
220°
2020 Jan 29, 08:21 33.70018° -118.20038° 30 min 0.02 0.01
217°
2020 Jan 29, 07:51 33.70022° -118.20034° 30 min 0.02 0.01
336°
2020 Jan 29, 07:21 33.70018° -118.20032° 30 min 0.02 0.01
156°
2020 Jan 29, 06:51 33.70022° -118.20034° 30 min 0.02 0.00
220°
2020 Jan 29, 06:21 33.70024° -118.20032° 30 min 0.02 0.01
301°
2020 Jan 29, 05:51 33.70022° -118.20027° 30 min 0.02 0.00
40°
2020 Jan 29, 05:21 33.70020° -118.20029° 30 min 0.02 0.00
180°
2020 Jan 29, 04:51 33.70023° -118.20029° 30 min 0.02 0.01
160°
2020 Jan 29, 04:21 33.70028° -118.20032° 30 min 0.02 0.00
239°
2020 Jan 29, 03:51 33.70029° -118.20029° 30 min 0.02 0.00
270°
2020 Jan 29, 03:21 33.70029° -118.20027° 30 min 0.02 0.00
2020 Jan 29, 02:51 33.70027° -118.20027° 30 min 0.02 0.00
212°
2020 Jan 29, 02:21 33.70030° -118.20025° 30 min 0.02 0.00
90°
2020 Jan 29, 01:51 33.70030° -118.20027° 30 min 0.02 0.00
270°
2020 Jan 29, 01:21 33.70030° -118.20023° 30 min 0.02 0.00
76°
2020 Jan 29, 00:51 33.70029° -118.20027° 30 min 0.02 0.00
270°
2020 Jan 29, 00:21 33.70029° -118.20025° 30 min 0.02 0.00
2020 Jan 28, 23:51 33.70028° -118.20025° 30 min 0.02 0.00
135°
2020 Jan 28, 23:21 33.70030° -118.20027° 30 min 0.02 0.00
2020 Jan 28, 22:51 33.70030° -118.20027° 30 min 0.02 0.00
2020 Jan 28, 22:21 33.70029° -118.20027° 30 min 0.02 0.00
2020 Jan 28, 21:51 33.70029° -118.20027° 30 min 0.02 0.01
138°
2020 Jan 28, 21:21 33.70034° -118.20032° 30 min 0.02 0.01
138°
2020 Jan 28, 20:51 33.70038° -118.20036° 30 min 0.02 0.01
142°
2020 Jan 28, 20:21 33.70044° -118.20042° 30 min 0.01 0.01
132°
2020 Jan 28, 19:51 33.70048° -118.20047° 30 min 0.01 0.01
77°
2020 Jan 28, 19:21 33.70047° -118.20053° 30 min 0.01 0.00
40°
2020 Jan 28, 18:51 33.70044° -118.20055° 30 min 0.01 0.00
270°
2020 Jan 28, 18:21 33.70044° -118.20051° 30 min 0.01 0.00
328°
2020 Jan 28, 17:51 33.70041° -118.20049° 30 min 0.01 0.00
270°
2020 Jan 28, 17:21 33.70041° -118.20047° 30 min 0.01 0.00
320°
2020 Jan 28, 16:51 33.70039° -118.20045° 30 min 0.01 0.00
239°
2020 Jan 28, 16:21 33.70040° -118.20042° 30 min 0.01 0.00
2020 Jan 28, 15:51 33.70038° -118.20042° 30 min 0.01 0.00
287°
2020 Jan 28, 15:21 33.70037° -118.20038° 30 min 0.01 0.01
2020 Jan 28, 14:51 33.70030° -118.20038° 30 min 0.01 0.00
180°
2020 Jan 28, 14:21 33.70031° -118.20038° 30 min 0.01 0.00
2020 Jan 28, 13:51 33.70030° -118.20038° 30 min 0.01 0.00
2020 Jan 28, 13:21 33.70028° -118.20038° 30 min 0.01 0.00
228°
2020 Jan 28, 12:51 33.70029° -118.20036° 30 min 0.02 0.01
15°
2020 Jan 28, 12:21 33.70025° -118.20038° 30 min 0.02 0.00
2020 Jan 28, 11:51 33.70022° -118.20038° 30 min 0.02 0.00
234°
2020 Jan 28, 11:21 33.70024° -118.20034° 30 min 0.02 0.00
2020 Jan 28, 10:51 33.70022° -118.20034° 30 min 0.02 0.00
2020 Jan 28, 10:21 33.70020° -118.20034° 30 min 0.02 0.00
90°
2020 Jan 28, 09:51 33.70020° -118.20038° 30 min 0.02 0.00
301°
2020 Jan 28, 09:21 33.70019° -118.20036° 30 min 0.02 0.00
270°
2020 Jan 28, 08:51 33.70019° -118.20034° 30 min 0.02 0.00
70°
2020 Jan 28, 08:21 33.70018° -118.20038° 30 min 0.02 0.00
180°
2020 Jan 28, 07:51 33.70019° -118.20038° 30 min 0.02 0.00
180°
2020 Jan 28, 07:21 33.70021° -118.20038° 30 min 0.02 0.00
2020 Jan 28, 06:51 33.70021° -118.20038° 30 min 0.02 0.01
217°
2020 Jan 28, 06:21 33.70025° -118.20034° 30 min 0.02 0.00
2020 Jan 28, 05:51 33.70025° -118.20034° 30 min 0.02 0.01
336°
2020 Jan 28, 05:21 33.70021° -118.20032° 30 min 0.02 0.00
2020 Jan 28, 04:51 33.70019° -118.20032° 30 min 0.02 0.00
2020 Jan 28, 04:21 33.70019° -118.20032° 30 min 0.02 0.00
225°
2020 Jan 28, 03:51 33.70021° -118.20029° 30 min 0.02 0.01
200°
2020 Jan 28, 03:21 33.70026° -118.20027° 30 min 0.02 0.00
2020 Jan 28, 02:51 33.70025° -118.20027° 30 min 0.02 0.01
180°
2020 Jan 28, 02:21 33.70029° -118.20027° 30 min 0.02 0.00
180°
2020 Jan 28, 01:51 33.70030° -118.20027° 30 min 0.02 0.00
292°
2020 Jan 28, 01:21 33.70029° -118.20025° 30 min 0.02 0.00
90°
2020 Jan 28, 00:51 33.70029° -118.20027° 30 min 0.02 0.00
2020 Jan 28, 00:21 33.70029° -118.20027° 30 min 0.02 0.00
270°
2020 Jan 27, 23:51 33.70029° -118.20025° 30 min 0.02 0.00
2020 Jan 27, 23:21 33.70028° -118.20025° 30 min 0.02 0.00
40°
2020 Jan 27, 22:51 33.70026° -118.20027° 30 min 0.02 0.00
45°
2020 Jan 27, 22:21 33.70024° -118.20029° 30 min 0.02 0.00
90°
2020 Jan 27, 21:51 33.70024° -118.20032° 30 min 0.02 0.00
40°
2020 Jan 27, 21:21 33.70022° -118.20034° 30 min 0.02 0.00
90°
2020 Jan 27, 20:51 33.70022° -118.20038° 30 min 0.02 0.01
16°
2020 Jan 27, 20:21 33.70015° -118.20040° 30 min 0.02 0.01
90°
2020 Jan 27, 19:51 33.70015° -118.20049° 30 min 0.01 0.01
51°
2020 Jan 27, 19:21 33.70012° -118.20053° 30 min 0.01 0.01
103°
2020 Jan 27, 18:51 33.70013° -118.20059° 30 min 0.01 0.00
59°
2020 Jan 27, 18:21 33.70012° -118.20061° 30 min 0.01 0.00
2020 Jan 27, 17:51 33.70012° -118.20061° 30 min 0.01 0.01
217°
2020 Jan 27, 17:21 33.70016° -118.20058° 30 min 0.01 0.01
231°
2020 Jan 27, 16:51 33.70020° -118.20053° 30 min 0.01 0.01
257°
2020 Jan 27, 16:21 33.70021° -118.20047° 30 min 0.01 0.01
180°
2020 Jan 27, 15:51 33.70026° -118.20047° 30 min 0.01 0.00
180°
2020 Jan 27, 15:21 33.70029° -118.20047° 30 min 0.01 0.01
15°
2020 Jan 27, 14:51 33.70025° -118.20049° 30 min 0.01 0.01
193°
2020 Jan 27, 14:21 33.70030° -118.20047° 30 min 0.01 0.00
270°
2020 Jan 27, 13:51 33.70030° -118.20045° 30 min 0.01 0.00
180°
2020 Jan 27, 13:21 33.70031° -118.20045° 30 min 0.01 0.00
32°
2020 Jan 27, 12:51 33.70028° -118.20047° 30 min 0.01 0.01
17°
2020 Jan 27, 12:21 33.70024° -118.20049° 30 min 0.01 0.00
239°
2020 Jan 27, 11:51 33.70026° -118.20045° 30 min 0.01 0.00
59°
2020 Jan 27, 11:21 33.70025° -118.20047° 30 min 0.01 0.00
90°
2020 Jan 27, 10:51 33.70025° -118.20049° 30 min 0.01 0.01
166°
2020 Jan 27, 10:21 33.70033° -118.20051° 30 min 0.01 0.01
41°
2020 Jan 27, 09:51 33.70026° -118.20058° 30 min 0.01 0.00
253°
2020 Jan 27, 09:21 33.70027° -118.20053° 30 min 0.01 0.01
84°
2020 Jan 27, 08:51 33.70026° -118.20066° 30 min 0.00 0.01
203°
2020 Jan 27, 08:21 33.70035° -118.20061° 30 min 0.00 0.01
255°
2020 Jan 27, 07:51 33.70037° -118.20053° 30 min 0.01 0.01
121°
2020 Jan 27, 07:21 33.70039° -118.20058° 30 min 0.01 0.01
180°
2020 Jan 27, 06:51 33.70044° -118.20058° 30 min 0.01 0.00
270°
2020 Jan 27, 06:21 33.70044° -118.20053° 30 min 0.01 0.01
301°
2020 Jan 27, 05:51 33.70042° -118.20049° 30 min 0.01 0.00
180°
2020 Jan 27, 05:21 33.70045° -118.20049° 30 min 0.01 0.00
2020 Jan 27, 04:51 33.70044° -118.20049° 30 min 0.01 0.00
209°
2020 Jan 27, 04:21 33.70047° -118.20047° 30 min 0.01 0.01
344°
2020 Jan 27, 03:51 33.70040° -118.20045° 30 min 0.01 0.01
231°
2020 Jan 27, 03:21 33.70043° -118.20040° 30 min 0.01 0.00
315°
2020 Jan 27, 02:51 33.70041° -118.20038° 30 min 0.02 0.00
239°
2020 Jan 27, 02:21 33.70042° -118.20036° 30 min 0.02 0.00
328°
2020 Jan 27, 01:51 33.70039° -118.20034° 30 min 0.02 0.00
2020 Jan 27, 01:21 33.70038° -118.20034° 30 min 0.02 0.00
315°
2020 Jan 27, 00:51 33.70036° -118.20032° 30 min 0.02 0.01
160°
2020 Jan 27, 00:21 33.70041° -118.20034° 30 min 0.02 0.00
2020 Jan 26, 23:51 33.70038° -118.20034° 30 min 0.02 0.00
2020 Jan 26, 23:21 33.70036° -118.20034° 30 min 0.02 0.01
23°
2020 Jan 26, 22:51 33.70031° -118.20036° 30 min 0.02 0.00
151°
2020 Jan 26, 22:21 33.70034° -118.20038° 30 min 0.01 0.01
42°
2020 Jan 26, 21:51 33.70029° -118.20042° 30 min 0.01 0.02
137°
2020 Jan 26, 21:21 33.70043° -118.20058° 30 min 0.01 0.01
38°
2020 Jan 26, 20:51 33.70037° -118.20064° 30 min 0.00 0.01
108°
2020 Jan 26, 20:21 33.70039° -118.20072° 30 min 0.00 0.00
121°
2020 Jan 26, 19:51 33.70040° -118.20074° 30 min 0.01 0.00
73°
2020 Jan 26, 19:21 33.70039° -118.20079° 30 min 0.01 0.00
148°
2020 Jan 26, 18:51 33.70042° -118.20081° 30 min 0.01 0.00
34°
2020 Jan 26, 18:21 33.70040° -118.20083° 30 min 0.01 0.00
180°
2020 Jan 26, 17:51 33.70043° -118.20083° 30 min 0.01 0.00
228°
2020 Jan 26, 17:21 33.70044° -118.20081° 30 min 0.01 0.00
48°
2020 Jan 26, 16:51 33.70043° -118.20083° 30 min 0.01 0.01
223°
2020 Jan 26, 16:21 33.70047° -118.20079° 30 min 0.01 0.00
270°
2020 Jan 26, 15:51 33.70047° -118.20077° 30 min 0.01 0.00
239°
2020 Jan 26, 15:21 33.70048° -118.20074° 30 min 0.01 0.00
248°
2020 Jan 26, 14:51 33.70049° -118.20072° 30 min 0.01 0.01
261°
2020 Jan 26, 14:21 33.70050° -118.20064° 30 min 0.01 0.00
180°
2020 Jan 26, 13:51 33.70051° -118.20064° 30 min 0.01 0.00
320°
2020 Jan 26, 13:21 33.70049° -118.20061° 30 min 0.01 0.00
284°
2020 Jan 26, 12:51 33.70048° -118.20058° 30 min 0.01 0.00
2020 Jan 26, 12:21 33.70044° -118.20058° 30 min 0.01 0.00
2020 Jan 26, 11:51 33.70043° -118.20058° 30 min 0.01 0.00
59°
2020 Jan 26, 11:21 33.70041° -118.20061° 30 min 0.01 0.00
239°
2020 Jan 26, 10:51 33.70043° -118.20058° 30 min 0.01 0.01
103°
2020 Jan 26, 10:21 33.70044° -118.20064° 30 min 0.01 0.00
301°
2020 Jan 26, 09:51 33.70043° -118.20061° 30 min 0.01 0.00
90°
2020 Jan 26, 09:21 33.70043° -118.20064° 30 min 0.01 0.01
81°
2020 Jan 26, 08:51 33.70042° -118.20072° 30 min 0.01 0.00
2020 Jan 26, 08:21 33.70042° -118.20072° 30 min 0.01 0.00
79°
2020 Jan 26, 07:51 33.70041° -118.20077° 30 min 0.01 0.00
2020 Jan 26, 07:21 33.70041° -118.20077° 30 min 0.01 0.00
180°
2020 Jan 26, 06:51 33.70043° -118.20077° 30 min 0.01 0.01
77°
2020 Jan 26, 06:21 33.70042° -118.20083° 30 min 0.01 0.01
215°
2020 Jan 26, 05:51 33.70047° -118.20079° 30 min 0.01 0.00
270°
2020 Jan 26, 05:21 33.70047° -118.20077° 30 min 0.01 0.01
204°
2020 Jan 26, 04:51 33.70051° -118.20074° 30 min 0.01 0.00
239°
2020 Jan 26, 04:21 33.70052° -118.20072° 30 min 0.01 0.01
279°
2020 Jan 26, 03:51 33.70051° -118.20064° 30 min 0.01 0.01
283°
2020 Jan 26, 03:21 33.70050° -118.20058° 30 min 0.01 0.00
253°
2020 Jan 26, 02:51 33.70051° -118.20053° 30 min 0.01 0.01
295°
2020 Jan 26, 02:21 33.70047° -118.20042° 30 min 0.01 0.00
320°
2020 Jan 26, 01:51 33.70044° -118.20040° 30 min 0.01 0.00
301°
2020 Jan 26, 01:21 33.70043° -118.20038° 30 min 0.02 0.00
2020 Jan 26, 00:51 33.70043° -118.20038° 30 min 0.02 0.00
151°
2020 Jan 26, 00:21 33.70047° -118.20040° 30 min 0.02 0.00
270°
2020 Jan 25, 23:51 33.70047° -118.20038° 30 min 0.02 0.00
73°
2020 Jan 25, 23:21 33.70045° -118.20042° 30 min 0.01 0.00
301°
2020 Jan 25, 22:51 33.70044° -118.20040° 30 min 0.01 0.01
90°
2020 Jan 25, 22:21 33.70044° -118.20049° 30 min 0.01 0.00
90°
2020 Jan 25, 21:51 33.70044° -118.20051° 30 min 0.01 0.01
97°
2020 Jan 25, 21:21 33.70045° -118.20061° 30 min 0.01 0.01
64°
2020 Jan 25, 20:51 33.70042° -118.20070° 30 min 0.01 0.01
76°
2020 Jan 25, 20:21 33.70040° -118.20079° 30 min 0.01 0.00
90°
2020 Jan 25, 19:51 33.70040° -118.20081° 30 min 0.01 0.00
239°
2020 Jan 25, 19:21 33.70041° -118.20079° 30 min 0.01 0.00
112°
2020 Jan 25, 18:51 33.70042° -118.20081° 30 min 0.01 0.00
151°
2020 Jan 25, 18:21 33.70044° -118.20083° 30 min 0.01 0.00
180°
2020 Jan 25, 17:51 33.70047° -118.20083° 30 min 0.01 0.00
2020 Jan 25, 17:21 33.70045° -118.20083° 30 min 0.01 0.00
180°
2020 Jan 25, 16:51 33.70047° -118.20083° 30 min 0.01 0.01
23°
2020 Jan 25, 16:21 33.70042° -118.20085° 30 min 0.01 0.00
180°
2020 Jan 25, 15:51 33.70045° -118.20085° 30 min 0.01 0.00
301°
2020 Jan 25, 15:21 33.70044° -118.20083° 30 min 0.01 0.00
2020 Jan 25, 14:51 33.70041° -118.20083° 30 min 0.01 0.01
218°
2020 Jan 25, 14:21 33.70048° -118.20077° 30 min 0.01 0.00
59°
2020 Jan 25, 13:51 33.70047° -118.20079° 30 min 0.01 0.00
301°
2020 Jan 25, 13:21 33.70045° -118.20077° 30 min 0.01 0.00
320°
2020 Jan 25, 12:51 33.70043° -118.20074° 30 min 0.01 0.01
257°
2020 Jan 25, 12:21 33.70044° -118.20068° 30 min 0.01 0.00
270°
2020 Jan 25, 11:51 33.70044° -118.20064° 30 min 0.01 0.01
66°
2020 Jan 25, 11:21 33.70041° -118.20072° 30 min 0.01 0.01
98°
2020 Jan 25, 10:51 33.70042° -118.20079° 30 min 0.01 0.01
2020 Jan 25, 10:21 33.70037° -118.20079° 30 min 0.01 0.00
220°
2020 Jan 25, 09:51 33.70039° -118.20077° 30 min 0.01 0.01
10°
2020 Jan 25, 09:21 33.70028° -118.20079° 30 min 0.01 0.00
121°
2020 Jan 25, 08:51 33.70029° -118.20081° 30 min 0.01 0.01
180°
2020 Jan 25, 08:21 33.70034° -118.20081° 30 min 0.01 0.00
48°
2020 Jan 25, 07:51 33.70033° -118.20083° 30 min 0.01 0.00
121°
2020 Jan 25, 07:21 33.70034° -118.20085° 30 min 0.01 0.00
121°
2020 Jan 25, 06:51 33.70035° -118.20087° 30 min 0.01 0.00
180°
2020 Jan 25, 06:21 33.70036° -118.20087° 30 min 0.01 0.00
248°
2020 Jan 25, 05:51 33.70037° -118.20085° 30 min 0.01 0.00
180°
2020 Jan 25, 05:21 33.70039° -118.20085° 30 min 0.01 0.01
239°
2020 Jan 25, 04:51 33.70043° -118.20077° 30 min 0.01 0.01
180°
2020 Jan 25, 04:21 33.70048° -118.20077° 30 min 0.01 0.00
287°
2020 Jan 25, 03:51 33.70047° -118.20072° 30 min 0.01 0.01
255°
2020 Jan 25, 03:21 33.70049° -118.20064° 30 min 0.01 0.01
257°
2020 Jan 25, 02:51 33.70050° -118.20058° 30 min 0.01 0.01
279°
2020 Jan 25, 02:21 33.70049° -118.20049° 30 min 0.01 0.00
68°
2020 Jan 25, 01:51 33.70048° -118.20051° 30 min 0.01 0.00
301°
2020 Jan 25, 01:21 33.70047° -118.20049° 30 min 0.01 0.00
228°
2020 Jan 25, 00:51 33.70048° -118.20047° 30 min 0.01 0.01
312°
2020 Jan 25, 00:21 33.70044° -118.20042° 30 min 0.01 0.00
239°
2020 Jan 24, 23:51 33.70045° -118.20040° 30 min 0.02 0.01
317°
2020 Jan 24, 23:21 33.70042° -118.20036° 30 min 0.02 0.00
59°
2020 Jan 24, 22:51 33.70041° -118.20038° 30 min 0.02 0.00
2020 Jan 24, 22:21 33.70039° -118.20038° 30 min 0.01 0.00
2020 Jan 24, 21:51 33.70037° -118.20038° 30 min 0.01 0.00
151°
2020 Jan 24, 21:21 33.70040° -118.20040° 30 min 0.01 0.01
42°
2020 Jan 24, 20:51 33.70036° -118.20045° 30 min 0.01 0.01
134°
2020 Jan 24, 20:21 33.70039° -118.20049° 30 min 0.01 0.02
72°
2020 Jan 24, 19:51 33.70035° -118.20064° 30 min 0.00 0.01
63°
2020 Jan 24, 19:21 33.70030° -118.20074° 30 min 0.00 0.00
180°
2020 Jan 24, 18:51 33.70033° -118.20074° 30 min 0.00 0.00
2020 Jan 24, 18:21 33.70031° -118.20074° 30 min 0.00 0.01
145°
2020 Jan 24, 17:51 33.70037° -118.20079° 30 min 0.01 0.00
2020 Jan 24, 17:21 33.70037° -118.20079° 30 min 0.01 0.01
196°
2020 Jan 24, 16:51 33.70043° -118.20077° 30 min 0.01 0.00
209°
2020 Jan 24, 16:21 33.70047° -118.20074° 30 min 0.01 0.00
270°
2020 Jan 24, 15:51 33.70047° -118.20072° 30 min 0.01 0.00
2020 Jan 24, 15:21 33.70047° -118.20072° 30 min 0.01 0.01
226°
2020 Jan 24, 14:51 33.70050° -118.20068° 30 min 0.01 0.00
239°
2020 Jan 24, 14:21 33.70051° -118.20066° 30 min 0.01 0.00
2020 Jan 24, 13:51 33.70051° -118.20066° 30 min 0.01 0.00
270°
2020 Jan 24, 13:21 33.70051° -118.20061° 30 min 0.01 0.01
2020 Jan 24, 12:51 33.70047° -118.20061° 30 min 0.01 0.00
320°
2020 Jan 24, 12:21 33.70044° -118.20059° 30 min 0.01 0.00
306°
2020 Jan 24, 11:51 33.70042° -118.20055° 30 min 0.01 0.00
315°
2020 Jan 24, 11:21 33.70040° -118.20053° 30 min 0.01 0.00
331°
2020 Jan 24, 10:51 33.70037° -118.20051° 30 min 0.01 0.00
292°
2020 Jan 24, 10:21 33.70036° -118.20049° 30 min 0.01 0.01
41°
2020 Jan 24, 09:51 33.70029° -118.20055° 30 min 0.01 0.01
59°
2020 Jan 24, 09:21 33.70024° -118.20066° 30 min 0.01 0.01
66°
2020 Jan 24, 08:51 33.70022° -118.20072° 30 min 0.01 0.01
164°
2020 Jan 24, 08:21 33.70028° -118.20074° 30 min 0.00 0.00
40°
2020 Jan 24, 07:51 33.70026° -118.20077° 30 min 0.01 0.01
132°
2020 Jan 24, 07:21 33.70029° -118.20081° 30 min 0.01 0.00
212°
2020 Jan 24, 06:51 33.70033° -118.20079° 30 min 0.01 0.00
2020 Jan 24, 06:21 33.70033° -118.20079° 30 min 0.01 0.00
90°
2020 Jan 24, 05:51 33.70033° -118.20083° 30 min 0.01 0.01
218°
2020 Jan 24, 05:21 33.70039° -118.20077° 30 min 0.01 0.01
231°
2020 Jan 24, 04:51 33.70042° -118.20072° 30 min 0.01 0.01
243°
2020 Jan 24, 04:21 33.70047° -118.20061° 30 min 0.01 0.01
288°
2020 Jan 24, 03:51 33.70043° -118.20049° 30 min 0.01 0.00
180°
2020 Jan 24, 03:21 33.70047° -118.20049° 30 min 0.01 0.00
270°
2020 Jan 24, 02:51 33.70047° -118.20047° 30 min 0.01 0.00
287°
2020 Jan 24, 02:21 33.70045° -118.20042° 30 min 0.01 0.01
288°
2020 Jan 24, 01:51 33.70043° -118.20034° 30 min 0.02 0.00
2020 Jan 24, 01:21 33.70042° -118.20034° 30 min 0.02 0.00
315°
2020 Jan 24, 00:51 33.70040° -118.20032° 30 min 0.02 0.00
2020 Jan 24, 00:21 33.70039° -118.20032° 30 min 0.02 0.00
328°
2020 Jan 23, 23:51 33.70036° -118.20029° 30 min 0.02 0.00
2020 Jan 23, 23:21 33.70034° -118.20029° 30 min 0.02 0.00
180°
2020 Jan 23, 22:51 33.70035° -118.20029° 30 min 0.02 0.00
29°
2020 Jan 23, 22:21 33.70031° -118.20032° 30 min 0.02 0.00
121°
2020 Jan 23, 21:51 33.70033° -118.20034° 30 min 0.02 0.01
38°
2020 Jan 23, 21:21 33.70026° -118.20040° 30 min 0.01 0.01
24°
2020 Jan 23, 20:51 33.70018° -118.20045° 30 min 0.01 0.01
43°
2020 Jan 23, 20:21 33.70014° -118.20049° 30 min 0.01 0.01
85°
2020 Jan 23, 19:51 33.70013° -118.20059° 30 min 0.01 0.01
119°
2020 Jan 23, 19:21 33.70018° -118.20068° 30 min 0.01 0.01
83°
2020 Jan 23, 18:51 33.70016° -118.20079° 30 min 0.01 0.00
180°
2020 Jan 23, 18:21 33.70018° -118.20079° 30 min 0.01 0.00
2020 Jan 23, 17:51 33.70015° -118.20079° 30 min 0.01 0.00
180°
2020 Jan 23, 17:21 33.70016° -118.20079° 30 min 0.01 0.00
301°
2020 Jan 23, 16:51 33.70015° -118.20077° 30 min 0.01 0.00
90°
2020 Jan 23, 16:21 33.70015° -118.20079° 30 min 0.01 0.02
157°
2020 Jan 23, 15:51 33.70027° -118.20085° 30 min 0.01 0.00
220°
2020 Jan 23, 15:21 33.70029° -118.20083° 30 min 0.01 0.01
345°
2020 Jan 23, 14:51 33.70025° -118.20081° 30 min 0.01 0.01
318°
2020 Jan 23, 14:21 33.70021° -118.20077° 30 min 0.01 0.01
150°
2020 Jan 23, 13:51 33.70027° -118.20081° 30 min 0.01 0.01
180°
2020 Jan 23, 13:21 33.70033° -118.20081° 30 min 0.01 0.01
194°
2020 Jan 23, 12:51 33.70040° -118.20079° 30 min 0.01 0.01
2020 Jan 23, 12:21 33.70036° -118.20079° 30 min 0.01 0.01
48°
2020 Jan 23, 11:51 33.70031° -118.20085° 30 min 0.01 0.01
20°
2020 Jan 23, 11:21 33.70026° -118.20087° 30 min 0.01 0.01
297°
2020 Jan 23, 10:51 33.70024° -118.20083° 30 min 0.01 0.00
40°
2020 Jan 23, 10:21 33.70022° -118.20085° 30 min 0.01 0.00
121°
2020 Jan 23, 09:51 33.70023° -118.20087° 30 min 0.01 0.01
325°
2020 Jan 23, 09:21 33.70018° -118.20083° 30 min 0.01 0.00
214°
2020 Jan 23, 08:51 33.70020° -118.20081° 30 min 0.01 0.01
180°
2020 Jan 23, 08:21 33.70024° -118.20081° 30 min 0.01 0.00
2020 Jan 23, 07:51 33.70024° -118.20081° 30 min 0.01 0.00
2020 Jan 23, 07:21 33.70024° -118.20081° 30 min 0.01 0.00
90°
2020 Jan 23, 06:51 33.70024° -118.20085° 30 min 0.01 0.00
180°
2020 Jan 23, 06:21 33.70025° -118.20085° 30 min 0.01 0.00
2020 Jan 23, 05:51 33.70025° -118.20085° 30 min 0.01 0.01
160°
2020 Jan 23, 05:21 33.70030° -118.20087° 30 min 0.01 0.00
121°
2020 Jan 23, 04:51 33.70031° -118.20090° 30 min 0.01 0.00
180°
2020 Jan 23, 04:21 33.70035° -118.20090° 30 min 0.01 0.01
218°
2020 Jan 23, 03:51 33.70042° -118.20083° 30 min 0.01 0.01
243°
2020 Jan 23, 03:21 33.70047° -118.20072° 30 min 0.01 0.00
306°
2020 Jan 23, 02:51 33.70044° -118.20068° 30 min 0.01 0.00
110°
2020 Jan 23, 02:21 33.70045° -118.20072° 30 min 0.01 0.00
234°
2020 Jan 23, 01:51 33.70048° -118.20068° 30 min 0.01 0.00
2020 Jan 23, 01:21 33.70045° -118.20068° 30 min 0.01 0.00
180°
2020 Jan 23, 00:51 33.70048° -118.20068° 30 min 0.01 0.00
2020 Jan 23, 00:21 33.70047° -118.20068° 30 min 0.01 0.01
243°
2020 Jan 22, 23:51 33.70049° -118.20064° 30 min 0.01 0.00
292°
2020 Jan 22, 23:21 33.70048° -118.20061° 30 min 0.01 0.00
2020 Jan 22, 22:51 33.70048° -118.20061° 30 min 0.01 0.00
2020 Jan 22, 22:21 33.70044° -118.20061° 30 min 0.01 0.01
329°
2020 Jan 22, 21:51 33.70039° -118.20058° 30 min 0.01 0.01
337°
2020 Jan 22, 21:21 33.70030° -118.20053° 30 min 0.01 0.01
51°
2020 Jan 22, 20:51 33.70027° -118.20058° 30 min 0.01 0.00
2020 Jan 22, 20:21 33.70024° -118.20058° 30 min 0.01 0.01
23°
2020 Jan 22, 19:51 33.70016° -118.20061° 30 min 0.01 0.00
180°
2020 Jan 22, 19:21 33.70018° -118.20061° 30 min 0.01 0.01
20°
2020 Jan 22, 18:51 33.70012° -118.20064° 30 min 0.01 0.00
239°
2020 Jan 22, 18:21 33.70013° -118.20061° 30 min 0.01 0.00
256°
2020 Jan 22, 17:51 33.70014° -118.20058° 30 min 0.01 0.00
34°
2020 Jan 22, 17:21 33.70012° -118.20059° 30 min 0.01 0.00
214°
2020 Jan 22, 16:51 33.70014° -118.20058° 30 min 0.01 0.01
203°
2020 Jan 22, 16:21 33.70019° -118.20055° 30 min 0.01 0.00
320°
2020 Jan 22, 15:51 33.70016° -118.20053° 30 min 0.01 0.01
180°
2020 Jan 22, 15:21 33.70022° -118.20053° 30 min 0.01 0.00
287°
2020 Jan 22, 14:51 33.70021° -118.20049° 30 min 0.01 0.00
200°
2020 Jan 22, 14:21 33.70024° -118.20047° 30 min 0.01 0.01
180°
2020 Jan 22, 13:51 33.70033° -118.20047° 30 min 0.01 0.01
196°
2020 Jan 22, 13:21 33.70039° -118.20045° 30 min 0.01 0.00
2020 Jan 22, 12:51 33.70038° -118.20045° 30 min 0.01 0.00
90°
2020 Jan 22, 12:21 33.70038° -118.20047° 30 min 0.01 0.00
2020 Jan 22, 11:51 33.70038° -118.20047° 30 min 0.01 0.01
180°
2020 Jan 22, 11:21 33.70044° -118.20047° 30 min 0.01 0.01
11°
2020 Jan 22, 10:51 33.70038° -118.20049° 30 min 0.01 0.00
209°
2020 Jan 22, 10:21 33.70040° -118.20047° 30 min 0.01 0.01
13°
2020 Jan 22, 09:51 33.70035° -118.20049° 30 min 0.01 0.00
2020 Jan 22, 09:21 33.70031° -118.20049° 30 min 0.01 0.01
310°
2020 Jan 22, 08:51 33.70027° -118.20042° 30 min 0.01 0.00
180°
2020 Jan 22, 08:21 33.70030° -118.20042° 30 min 0.01 0.00
2020 Jan 22, 07:51 33.70027° -118.20042° 30 min 0.01 0.00
2020 Jan 22, 07:21 33.70026° -118.20042° 30 min 0.01 0.00
90°
2020 Jan 22, 06:51 33.70026° -118.20047° 30 min 0.01 0.00
2020 Jan 22, 06:21 33.70025° -118.20047° 30 min 0.01 0.01
2020 Jan 22, 05:51 33.70018° -118.20047° 30 min 0.01 0.01
204°
2020 Jan 22, 05:21 33.70026° -118.20042° 30 min 0.01 0.00
2020 Jan 22, 04:51 33.70023° -118.20042° 30 min 0.01 0.01
195°
2020 Jan 22, 04:21 33.70030° -118.20040° 30 min 0.01 0.00
90°
2020 Jan 22, 03:51 33.70030° -118.20045° 30 min 0.01 0.01
168°
2020 Jan 22, 03:21 33.70039° -118.20047° 30 min 0.01 0.02
330°
2020 Jan 22, 02:51 33.70026° -118.20038° 30 min 0.02 0.01
197°
2020 Jan 22, 02:21 33.70030° -118.20036° 30 min 0.02 0.01
172°
2020 Jan 22, 01:51 33.70039° -118.20038° 30 min 0.01 0.01
323°
2020 Jan 22, 01:21 33.70035° -118.20034° 30 min 0.02 0.00
2020 Jan 22, 00:51 33.70035° -118.20034° 30 min 0.02 0.00
331°
2020 Jan 22, 00:21 33.70031° -118.20032° 30 min 0.02 0.00
270°
2020 Jan 21, 23:51 33.70031° -118.20027° 30 min 0.02 0.00
32°
2020 Jan 21, 23:21 33.70028° -118.20029° 30 min 0.02 0.01
156°
2020 Jan 21, 22:51 33.70037° -118.20034° 30 min 0.02 0.00
328°
2020 Jan 21, 22:21 33.70034° -118.20032° 30 min 0.02 0.00
2020 Jan 21, 21:51 33.70033° -118.20032° 30 min 0.02 0.00
2020 Jan 21, 21:21 33.70030° -118.20032° 30 min 0.02 0.00
68°
2020 Jan 21, 20:51 33.70029° -118.20034° 30 min 0.02 0.00
331°
2020 Jan 21, 20:21 33.70026° -118.20032° 30 min 0.02 0.01
24°
2020 Jan 21, 19:51 33.70022° -118.20034° 30 min 0.02 0.01
156°
2020 Jan 21, 19:21 33.70026° -118.20036° 30 min 0.02 0.01
38°
2020 Jan 21, 18:51 33.70020° -118.20042° 30 min 0.01 0.01
203°
2020 Jan 21, 18:21 33.70024° -118.20040° 30 min 0.01 0.00
2020 Jan 21, 17:51 33.70024° -118.20040° 30 min 0.01 0.00
2020 Jan 21, 17:21 33.70022° -118.20040° 30 min 0.02 0.01
204°
2020 Jan 21, 16:51 33.70026° -118.20038° 30 min 0.02 0.00
2020 Jan 21, 16:21 33.70025° -118.20038° 30 min 0.02 0.01
191°
2020 Jan 21, 15:51 33.70031° -118.20036° 30 min 0.02 0.01
46°
2020 Jan 21, 15:21 33.70028° -118.20040° 30 min 0.01 0.01
166°
2020 Jan 21, 14:51 33.70036° -118.20042° 30 min 0.01 0.00
2020 Jan 21, 14:21 33.70034° -118.20042° 30 min 0.01 0.01
150°
2020 Jan 21, 13:51 33.70040° -118.20047° 30 min 0.01 0.01
13°
2020 Jan 21, 13:21 33.70035° -118.20049° 30 min 0.01 0.00
148°
2020 Jan 21, 12:51 33.70038° -118.20051° 30 min 0.01 0.01
203°
2020 Jan 21, 12:21 33.70045° -118.20047° 30 min 0.01 0.01
108°
2020 Jan 21, 11:51 33.70048° -118.20055° 30 min 0.01 0.00
54°
2020 Jan 21, 11:21 33.70045° -118.20059° 30 min 0.01 0.01
315°
2020 Jan 21, 10:51 33.70037° -118.20049° 30 min 0.01 0.01
140°
2020 Jan 21, 10:21 33.70041° -118.20053° 30 min 0.01 0.01
129°
2020 Jan 21, 09:51 33.70044° -118.20058° 30 min 0.01 0.00
2020 Jan 21, 09:21 33.70041° -118.20058° 30 min 0.01 0.01
301°
2020 Jan 21, 08:51 33.70037° -118.20049° 30 min 0.01 0.00
121°
2020 Jan 21, 08:21 33.70038° -118.20051° 30 min 0.01 0.00
290°
2020 Jan 21, 07:51 33.70037° -118.20047° 30 min 0.01 0.01
69°
2020 Jan 21, 07:21 33.70035° -118.20053° 30 min 0.01 0.01
44°
2020 Jan 21, 06:51 33.70029° -118.20059° 30 min 0.00 0.01
102°
2020 Jan 21, 06:21 33.70031° -118.20070° 30 min 0.00 0.01
180°
2020 Jan 21, 05:51 33.70038° -118.20070° 30 min 0.00 0.01
54°
2020 Jan 21, 05:21 33.70034° -118.20077° 30 min 0.00 0.01
2020 Jan 21, 04:51 33.70027° -118.20077° 30 min 0.01 0.01
203°
2020 Jan 21, 04:21 33.70036° -118.20072° 30 min 0.00 0.01
331°
2020 Jan 21, 03:51 33.70030° -118.20068° 30 min 0.00 0.02
219°
2020 Jan 21, 03:21 33.70041° -118.20058° 30 min 0.01 0.01
301°
2020 Jan 21, 02:51 33.70037° -118.20049° 30 min 0.01 0.00
140°
2020 Jan 21, 02:21 33.70039° -118.20051° 30 min 0.01 0.01
301°
2020 Jan 21, 01:51 33.70036° -118.20045° 30 min 0.01 0.01
200°
2020 Jan 21, 01:21 33.70041° -118.20042° 30 min 0.01 0.00
287°
2020 Jan 21, 00:51 33.70040° -118.20038° 30 min 0.02 0.00
2020 Jan 21, 00:21 33.70039° -118.20038° 30 min 0.01 0.01
343°
2020 Jan 20, 23:51 33.70035° -118.20036° 30 min 0.02 0.00
301°
2020 Jan 20, 23:21 33.70034° -118.20034° 30 min 0.02 0.01
2020 Jan 20, 22:51 33.70029° -118.20034° 30 min 0.02 0.00
212°
2020 Jan 20, 22:21 33.70033° -118.20032° 30 min 0.02 0.00
320°
2020 Jan 20, 21:51 33.70030° -118.20029° 30 min 0.02 0.01
336°
2020 Jan 20, 21:21 33.70026° -118.20027° 30 min 0.02 0.00
59°
2020 Jan 20, 20:51 33.70025° -118.20029° 30 min 0.02 0.01
51°
2020 Jan 20, 20:21 33.70022° -118.20034° 30 min 0.02 0.01
2020 Jan 20, 19:51 33.70018° -118.20034° 30 min 0.02 0.00
180°
2020 Jan 20, 19:21 33.70021° -118.20034° 30 min 0.02 0.01
16°
2020 Jan 20, 18:51 33.70014° -118.20036° 30 min 0.02 0.01
207°
2020 Jan 20, 18:21 33.70022° -118.20032° 30 min 0.02 0.01
27°
2020 Jan 20, 17:51 33.70014° -118.20036° 30 min 0.02 0.01
200°
2020 Jan 20, 17:21 33.70020° -118.20034° 30 min 0.02 0.00
220°
2020 Jan 20, 16:51 33.70022° -118.20032° 30 min 0.02 0.00
220°
2020 Jan 20, 16:21 33.70024° -118.20029° 30 min 0.02 0.00
90°
2020 Jan 20, 15:51 33.70024° -118.20032° 30 min 0.02 0.00
40°
2020 Jan 20, 15:21 33.70022° -118.20034° 30 min 0.02 0.01
180°
2020 Jan 20, 14:51 33.70029° -118.20034° 30 min 0.02 0.00
180°
2020 Jan 20, 14:21 33.70030° -118.20034° 30 min 0.02 0.00
180°
2020 Jan 20, 13:51 33.70033° -118.20034° 30 min 0.02 0.00
90°
2020 Jan 20, 13:21 33.70033° -118.20038° 30 min 0.01 0.01
2020 Jan 20, 12:51 33.70028° -118.20038° 30 min 0.01 0.01
156°
2020 Jan 20, 12:21 33.70033° -118.20040° 30 min 0.01 0.00
73°
2020 Jan 20, 11:51 33.70031° -118.20045° 30 min 0.01 0.00
180°
2020 Jan 20, 11:21 33.70035° -118.20045° 30 min 0.01 0.00
70°
2020 Jan 20, 10:51 33.70034° -118.20049° 30 min 0.01 0.00
270°
2020 Jan 20, 10:21 33.70034° -118.20047° 30 min 0.01 0.00
132°
2020 Jan 20, 09:51 33.70035° -118.20049° 30 min 0.01 0.00
2020 Jan 20, 09:21 33.70035° -118.20049° 30 min 0.01 0.00
312°
2020 Jan 20, 08:51 33.70034° -118.20047° 30 min 0.01 0.00
2020 Jan 20, 08:21 33.70034° -118.20047° 30 min 0.01 0.01
31°
2020 Jan 20, 07:51 33.70028° -118.20051° 30 min 0.01 0.01
180°
2020 Jan 20, 07:21 33.70034° -118.20051° 30 min 0.01 0.01
346°
2020 Jan 20, 06:51 33.70026° -118.20049° 30 min 0.01 0.01
42°
2020 Jan 20, 06:21 33.70022° -118.20053° 30 min 0.01 0.00
2020 Jan 20, 05:51 33.70020° -118.20053° 30 min 0.01 0.00
209°
2020 Jan 20, 05:21 33.70023° -118.20051° 30 min 0.01 0.00
301°
2020 Jan 20, 04:51 33.70022° -118.20049° 30 min 0.01 0.00
270°
2020 Jan 20, 04:21 33.70022° -118.20047° 30 min 0.01 0.01
207°
2020 Jan 20, 03:51 33.70029° -118.20042° 30 min 0.01 0.01
2020 Jan 20, 03:21 33.70025° -118.20042° 30 min 0.01 0.00
180°
2020 Jan 20, 02:51 33.70028° -118.20042° 30 min 0.01 0.00
270°
2020 Jan 20, 02:21 33.70028° -118.20040° 30 min 0.01 0.00
225°
2020 Jan 20, 01:51 33.70030° -118.20038° 30 min 0.01 0.00
270°
2020 Jan 20, 01:21 33.70030° -118.20036° 30 min 0.02 0.00
239°
2020 Jan 20, 00:51 33.70031° -118.20034° 30 min 0.02 0.00
180°
2020 Jan 20, 00:21 33.70033° -118.20034° 30 min 0.02 0.01
239°
2020 Jan 19, 23:51 33.70035° -118.20029° 30 min 0.02 0.00
90°
2020 Jan 19, 23:21 33.70035° -118.20032° 30 min 0.02 0.00
239°
2020 Jan 19, 22:51 33.70036° -118.20029° 30 min 0.02 0.00
73°
2020 Jan 19, 22:21 33.70035° -118.20034° 30 min 0.02 0.00
239°
2020 Jan 19, 21:51 33.70036° -118.20032° 30 min 0.02 0.00
90°
2020 Jan 19, 21:21 33.70036° -118.20034° 30 min 0.02 0.00
148°
2020 Jan 19, 20:51 33.70039° -118.20036° 30 min 0.02 0.01
77°
2020 Jan 19, 20:21 33.70038° -118.20042° 30 min 0.01 0.01
2020 Jan 19, 19:51 33.70028° -118.20042° 30 min 0.01 0.00
287°
2020 Jan 19, 19:21 33.70027° -118.20038° 30 min 0.01 0.01
35°
2020 Jan 19, 18:51 33.70022° -118.20042° 30 min 0.01 0.00
270°
2020 Jan 19, 18:21 33.70022° -118.20040° 30 min 0.02 0.00
2020 Jan 19, 17:51 33.70021° -118.20040° 30 min 0.02 0.01
2020 Jan 19, 17:21 33.70016° -118.20040° 30 min 0.02 0.00
180°
2020 Jan 19, 16:51 33.70019° -118.20040° 30 min 0.02 0.00
59°
2020 Jan 19, 16:21 33.70018° -118.20042° 30 min 0.02 0.00
287°
2020 Jan 19, 15:51 33.70016° -118.20038° 30 min 0.02 0.00
203°
2020 Jan 19, 15:21 33.70020° -118.20036° 30 min 0.02 0.01
145°
2020 Jan 19, 14:51 33.70024° -118.20040° 30 min 0.01 0.00
225°
2020 Jan 19, 14:21 33.70026° -118.20038° 30 min 0.02 0.00
2020 Jan 19, 13:51 33.70025° -118.20038° 30 min 0.02 0.00
180°
2020 Jan 19, 13:21 33.70026° -118.20038° 30 min 0.02 0.00
180°
2020 Jan 19, 12:51 33.70029° -118.20038° 30 min 0.01 0.00
90°
2020 Jan 19, 12:21 33.70029° -118.20042° 30 min 0.01 0.01
142°
2020 Jan 19, 11:51 33.70036° -118.20049° 30 min 0.01 0.02
87°
2020 Jan 19, 11:21 33.70035° -118.20072° 30 min 0.00 0.01
138°
2020 Jan 19, 10:51 33.70039° -118.20077° 30 min 0.01 0.00
90°
2020 Jan 19, 10:21 33.70039° -118.20079° 30 min 0.01 0.00
148°
2020 Jan 19, 09:51 33.70042° -118.20081° 30 min 0.01 0.01
35°
2020 Jan 19, 09:21 33.70035° -118.20087° 30 min 0.01 0.01
59°
2020 Jan 19, 08:51 33.70033° -118.20092° 30 min 0.01 0.00
270°
2020 Jan 19, 08:21 33.70033° -118.20090° 30 min 0.01 0.01
24°
2020 Jan 19, 07:51 33.70028° -118.20092° 30 min 0.01 0.00
331°
2020 Jan 19, 07:21 33.70025° -118.20090° 30 min 0.01 0.02
343°
2020 Jan 19, 06:51 33.70012° -118.20085° 30 min 0.02 0.01
304°
2020 Jan 19, 06:21 33.70009° -118.20079° 30 min 0.02 0.01
309°
2020 Jan 19, 05:51 33.70006° -118.20074° 30 min 0.02 0.00
253°
2020 Jan 19, 05:21 33.70007° -118.20070° 30 min 0.02 0.00
2020 Jan 19, 04:51 33.70006° -118.20070° 30 min 0.02 0.01
101°
2020 Jan 19, 04:21 33.70007° -118.20077° 30 min 0.02 0.01
218°
2020 Jan 19, 03:51 33.70014° -118.20070° 30 min 0.01 0.01
246°
2020 Jan 19, 03:21 33.70019° -118.20058° 30 min 0.01 0.01
231°
2020 Jan 19, 02:51 33.70022° -118.20053° 30 min 0.01 0.01
211°
2020 Jan 19, 02:21 33.70030° -118.20047° 30 min 0.01 0.01
138°
2020 Jan 19, 01:51 33.70036° -118.20053° 30 min 0.01 0.01
239°
2020 Jan 19, 01:21 33.70039° -118.20047° 30 min 0.01 0.00
180°
2020 Jan 19, 00:51 33.70042° -118.20047° 30 min 0.01 0.01
165°
2020 Jan 19, 00:21 33.70047° -118.20049° 30 min 0.01 0.00
2020 Jan 18, 23:51 33.70047° -118.20049° 30 min 0.01 0.01
145°
2020 Jan 18, 23:21 33.70052° -118.20053° 30 min 0.01 0.01
90°
2020 Jan 18, 22:51 33.70052° -118.20064° 30 min 0.01 0.01
90°
2020 Jan 18, 22:21 33.70052° -118.20072° 30 min 0.01 0.00
2020 Jan 18, 21:51 33.70051° -118.20072° 30 min 0.01 0.01
59°
2020 Jan 18, 21:21 33.70045° -118.20083° 30 min 0.01 0.01
81°
2020 Jan 18, 20:51 33.70044° -118.20092° 30 min 0.01 0.02
2020 Jan 18, 20:21 33.70031° -118.20094° 30 min 0.01 0.01
51°
2020 Jan 18, 19:51 33.70028° -118.20098° 30 min 0.02 0.01
270°
2020 Jan 18, 19:21 33.70028° -118.20092° 30 min 0.01 0.01
2020 Jan 18, 18:51 33.70022° -118.20092° 30 min 0.01 0.01
2020 Jan 18, 18:21 33.70016° -118.20092° 30 min 0.02 0.01
313°
2020 Jan 18, 17:51 33.70011° -118.20085° 30 min 0.02 0.02
284°
2020 Jan 18, 17:21 33.70008° -118.20068° 30 min 0.02 0.01
288°
2020 Jan 18, 16:51 33.70006° -118.20061° 30 min 0.02 0.00
250°
2020 Jan 18, 16:21 33.70007° -118.20058° 30 min 0.02 0.00
2020 Jan 18, 15:51 33.70007° -118.20058° 30 min 0.02 0.00
248°
2020 Jan 18, 15:21 33.70008° -118.20055° 30 min 0.02 0.00
328°
2020 Jan 18, 14:51 33.70005° -118.20053° 30 min 0.02 0.01
129°
2020 Jan 18, 14:21 33.70008° -118.20058° 30 min 0.02 0.01
239°
2020 Jan 18, 13:51 33.70011° -118.20051° 30 min 0.02 0.01
54°
2020 Jan 18, 13:21 33.70007° -118.20058° 30 min 0.02 0.00
70°
2020 Jan 18, 12:51 33.70006° -118.20061° 30 min 0.02 0.01
239°
2020 Jan 18, 12:21 33.70010° -118.20053° 30 min 0.02 0.01
104°
2020 Jan 18, 11:51 33.70012° -118.20064° 30 min 0.01 0.02
109°
2020 Jan 18, 11:21 33.70018° -118.20083° 30 min 0.01 0.01
139°
2020 Jan 18, 10:51 33.70024° -118.20090° 30 min 0.01 0.01
134°
2020 Jan 18, 10:21 33.70027° -118.20094° 30 min 0.01 0.01
193°
2020 Jan 18, 09:51 33.70033° -118.20092° 30 min 0.01 0.00
2020 Jan 18, 09:21 33.70033° -118.20092° 30 min 0.01 0.00
160°
2020 Jan 18, 08:51 33.70036° -118.20094° 30 min 0.01 0.00
2020 Jan 18, 08:21 33.70034° -118.20094° 30 min 0.01 0.00
90°
2020 Jan 18, 07:51 33.70034° -118.20098° 30 min 0.02 0.00
320°
2020 Jan 18, 07:21 33.70031° -118.20096° 30 min 0.01 0.00
328°
2020 Jan 18, 06:51 33.70028° -118.20094° 30 min 0.01 0.00
331°
2020 Jan 18, 06:21 33.70026° -118.20092° 30 min 0.01 0.00
2020 Jan 18, 05:51 33.70024° -118.20092° 30 min 0.01 0.01
312°
2020 Jan 18, 05:21 33.70021° -118.20087° 30 min 0.01 0.01
307°
2020 Jan 18, 04:51 33.70015° -118.20079° 30 min 0.01 0.02
280°
2020 Jan 18, 04:21 33.70012° -118.20058° 30 min 0.01 0.01
245°
2020 Jan 18, 03:51 33.70016° -118.20047° 30 min 0.01 0.01
234°
2020 Jan 18, 03:21 33.70023° -118.20036° 30 min 0.02 0.00
225°
2020 Jan 18, 02:51 33.70025° -118.20034° 30 min 0.02 0.00
76°
2020 Jan 18, 02:21 33.70024° -118.20038° 30 min 0.02 0.01
226°
2020 Jan 18, 01:51 33.70027° -118.20034° 30 min 0.02 0.00
140°
2020 Jan 18, 01:21 33.70029° -118.20036° 30 min 0.02 0.00
180°
2020 Jan 18, 00:51 33.70030° -118.20036° 30 min 0.02 0.02
157°
2020 Jan 18, 00:21 33.70042° -118.20042° 30 min 0.01 0.02
100°
2020 Jan 17, 23:51 33.70044° -118.20058° 30 min 0.01 0.01
90°
2020 Jan 17, 23:21 33.70044° -118.20070° 30 min 0.01 0.01
55°
2020 Jan 17, 22:51 33.70039° -118.20079° 30 min 0.01 0.01
114°
2020 Jan 17, 22:21 33.70042° -118.20087° 30 min 0.01 0.01
32°
2020 Jan 17, 21:51 33.70036° -118.20092° 30 min 0.01 0.00
146°
2020 Jan 17, 21:21 33.70038° -118.20094° 30 min 0.01 0.00
32°
2020 Jan 17, 20:51 33.70035° -118.20096° 30 min 0.01 0.00
180°
2020 Jan 17, 20:21 33.70036° -118.20096° 30 min 0.01 0.01
334°
2020 Jan 17, 19:51